Time;durP1;ratioP1;P1;durP2;ratioP2;P2;SDS_P1;SDS_P2;PMS_P1;PMS_P2;Temp;Humidity;BMP_temperature;BMP_pressure;BME280_temperature;BME280_humidity;BME280_pressure;Samples;Min_cycle;Max_cycle;Signal;HPM_P1;HPM_P2
2023/07/13 00:00:46;;;;;;;3.95;1.75;;;17.30;99.90;;;;;;6178351;23;20001;-86
2023/07/13 00:03:13;;;;;;;3.75;1.95;;;17.30;99.90;;;;;;6178737;23;19997;-87
2023/07/13 00:05:41;;;;;;;6.22;2.05;;;17.30;99.90;;;;;;6178328;23;20091;-86
2023/07/13 00:08:08;;;;;;;5.40;2.00;;;17.20;99.90;;;;;;6178067;23;20036;-87
2023/07/13 00:10:33;;;;;;;3.47;1.92;;;17.20;99.90;;;;;;6178840;23;19997;-87
2023/07/13 00:12:59;;;;;;;3.80;1.45;;;17.20;99.90;;;;;;6178948;23;20080;-88
2023/07/13 00:15:26;;;;;;;9.02;1.75;;;17.20;99.90;;;;;;6178665;23;20028;-87
2023/07/13 00:17:54;;;;;;;3.72;1.92;;;17.20;99.90;;;;;;6178066;23;20073;-86
2023/07/13 00:20:22;;;;;;;3.83;1.80;;;17.20;99.90;;;;;;6177466;23;20008;-87
2023/07/13 00:22:49;;;;;;;5.25;2.10;;;17.10;99.90;;;;;;6178021;23;20091;-87
2023/07/13 00:25:15;;;;;;;10.98;2.55;;;17.10;99.90;;;;;;6178531;23;20085;-87
2023/07/13 00:27:44;;;;;;;2.80;1.80;;;17.00;99.90;;;;;;6178104;23;20009;-84
2023/07/13 00:30:11;;;;;;;7.55;2.03;;;17.00;99.90;;;;;;6177022;23;20438;-87
2023/07/13 00:32:37;;;;;;;4.05;1.73;;;17.00;99.90;;;;;;6178265;23;20002;-88
2023/07/13 00:35:04;;;;;;;4.55;2.10;;;17.00;99.90;;;;;;6177466;23;20029;-88
2023/07/13 00:37:31;;;;;;;7.25;2.13;;;17.00;99.90;;;;;;6177904;23;20016;-84
2023/07/13 00:39:57;;;;;;;5.50;2.00;;;16.90;99.90;;;;;;6178078;23;20076;-87
2023/07/13 00:42:23;;;;;;;4.55;1.88;;;16.90;99.90;;;;;;6178621;23;20079;-85
2023/07/13 00:45:11;;;;;;;4.18;1.90;;;16.80;99.90;;;;;;6178031;23;20091;-86
2023/07/13 00:47:40;;;;;;;3.10;1.67;;;16.90;99.90;;;;;;6175651;23;20001;-87
2023/07/13 00:50:09;;;;;;;8.73;2.35;;;16.70;99.90;;;;;;6178179;23;20009;-87
2023/07/13 00:52:40;;;;;;;3.53;1.77;;;16.70;99.90;;;;;;6178268;23;20363;-87
2023/07/13 00:55:10;;;;;;;5.88;2.38;;;16.70;99.90;;;;;;6178131;23;20064;-83
2023/07/13 00:57:36;;;;;;;3.33;1.80;;;16.70;99.90;;;;;;6178922;23;20017;-87
2023/07/13 01:00:08;;;;;;;2.58;1.85;;;16.60;99.90;;;;;;6178126;23;20050;-87
2023/07/13 01:02:36;;;;;;;4.50;1.70;;;16.70;99.90;;;;;;6178392;23;20081;-86
2023/07/13 01:05:08;;;;;;;4.80;2.22;;;16.60;99.90;;;;;;6176945;23;20081;-88
2023/07/13 01:07:33;;;;;;;3.22;1.48;;;16.60;99.90;;;;;;6178020;23;20371;-87
2023/07/13 01:09:59;;;;;;;3.17;1.95;;;16.60;99.90;;;;;;6177995;23;20056;-86
2023/07/13 01:12:25;;;;;;;5.13;1.70;;;16.60;99.90;;;;;;6178003;23;20005;-86
2023/07/13 01:15:01;;;;;;;3.92;1.90;;;16.60;99.90;;;;;;6178169;23;19997;-83
2023/07/13 01:17:27;;;;;;;;;;;16.60;99.90;;;;;;6178426;23;20652;-86
2023/07/13 01:19:52;;;;;;;5.10;1.63;;;16.60;99.90;;;;;;6178326;23;19932;-84
2023/07/13 01:22:19;;;;;;;3.00;1.88;;;16.60;99.90;;;;;;6177633;23;20001;-87
2023/07/13 01:24:46;;;;;;;5.35;1.80;;;16.50;99.90;;;;;;6177963;23;20001;-86
2023/07/13 01:27:15;;;;;;;3.25;1.65;;;16.60;99.90;;;;;;6177966;23;20012;-86
2023/07/13 01:29:43;;;;;;;5.57;2.33;;;16.50;99.90;;;;;;6177921;23;20001;-86
2023/07/13 01:32:12;;;;;;;4.03;1.92;;;16.50;99.90;;;;;;6177723;23;20051;-86
2023/07/13 01:34:37;;;;;;;9.07;2.20;;;16.60;99.90;;;;;;6178174;23;20005;-84
2023/07/13 01:37:05;;;;;;;2.70;1.77;;;16.50;99.90;;;;;;6177048;23;20013;-86
2023/07/13 01:39:31;;;;;;;2.60;1.70;;;16.60;99.90;;;;;;6177559;23;20060;-84
2023/07/13 01:41:57;;;;;;;1.90;1.55;;;16.60;99.90;;;;;;6176795;23;20043;-87
2023/07/13 01:44:22;;;;;;;3.80;2.05;;;16.60;99.90;;;;;;6177863;23;19997;-86
2023/07/13 01:46:48;;;;;;;7.45;1.88;;;16.50;99.90;;;;;;6178067;23;20474;-87
2023/07/13 01:49:13;;;;;;;4.57;1.95;;;16.50;99.90;;;;;;6150796;23;20025;-86
2023/07/13 01:51:39;;;;;;;4.72;2.40;;;16.50;99.90;;;;;;6175921;23;20001;-87
2023/07/13 01:54:05;;;;;;;5.45;2.33;;;16.40;99.90;;;;;;6177301;23;20032;-86
2023/07/13 01:56:30;;;;;;;8.27;2.42;;;16.40;99.90;;;;;;6177254;23;20093;-86
2023/07/13 01:58:56;;;;;;;7.05;2.75;;;16.30;99.90;;;;;;6177337;23;20635;-86
2023/07/13 02:01:22;;;;;;;6.25;2.00;;;16.20;99.90;;;;;;6177250;23;20423;-87
2023/07/13 02:03:47;;;;;;;5.18;1.95;;;16.10;99.90;;;;;;6149656;23;20011;-87
2023/07/13 02:06:13;;;;;;;7.78;2.50;;;16.10;99.90;;;;;;6177586;23;20104;-86
2023/07/13 02:08:41;;;;;;;4.55;2.30;;;16.10;99.90;;;;;;6177916;23;19997;-84
2023/07/13 02:11:07;;;;;;;8.70;2.08;;;16.00;99.90;;;;;;6177442;23;20010;-84
2023/07/13 02:13:32;;;;;;;10.65;2.45;;;16.00;99.90;;;;;;6177511;23;20100;-87
2023/07/13 02:15:58;;;;;;;5.30;2.05;;;16.00;99.90;;;;;;6177242;23;20013;-87
2023/07/13 02:18:23;;;;;;;4.28;2.20;;;16.00;99.90;;;;;;6176651;23;20482;-86
2023/07/13 02:20:49;;;;;;;5.40;2.47;;;16.00;99.90;;;;;;6179168;23;19997;-87
2023/07/13 02:23:14;;;;;;;8.75;2.85;;;16.00;99.90;;;;;;6179821;23;20012;-86
2023/07/13 02:25:40;;;;;;;5.40;2.33;;;15.90;99.90;;;;;;6179343;23;20464;-86
2023/07/13 02:28:06;;;;;;;6.30;2.42;;;15.90;99.90;;;;;;6179564;23;20001;-87
2023/07/13 02:30:34;;;;;;;5.05;2.60;;;15.90;99.90;;;;;;6179109;23;20001;-86
2023/07/13 02:32:59;;;;;;;4.47;2.13;;;15.80;99.90;;;;;;6178238;23;20001;-87
2023/07/13 02:35:25;;;;;;;9.82;2.60;;;15.80;99.90;;;;;;6179733;23;20060;-86
2023/07/13 02:37:51;;;;;;;8.38;3.17;;;15.80;99.90;;;;;;6179101;23;20083;-86
2023/07/13 02:40:16;;;;;;;7.35;2.72;;;15.70;99.90;;;;;;6178334;23;20102;-87
2023/07/13 02:42:42;;;;;;;3.50;1.85;;;15.80;99.90;;;;;;6179189;23;20681;-86
2023/07/13 02:45:09;;;;;;;6.10;2.28;;;15.80;99.90;;;;;;6177780;23;20023;-84
2023/07/13 02:47:35;;;;;;;5.63;2.20;;;15.70;99.90;;;;;;6179891;23;19997;-86
2023/07/13 02:50:01;;;;;;;6.38;2.90;;;15.70;99.90;;;;;;6179304;23;20001;-86
2023/07/13 02:52:27;;;;;;;8.35;2.50;;;15.70;99.90;;;;;;6178859;23;20092;-87
2023/07/13 02:54:52;;;;;;;6.65;2.30;;;15.70;99.90;;;;;;6178640;23;20008;-84
2023/07/13 02:57:18;;;;;;;11.00;2.83;;;15.70;99.90;;;;;;6178947;23;20063;-87
2023/07/13 02:59:44;;;;;;;4.85;3.17;;;15.70;99.90;;;;;;6177635;23;20028;-86
2023/07/13 03:02:09;;;;;;;6.55;2.33;;;15.70;99.90;;;;;;6178303;23;20001;-86
2023/07/13 03:04:36;;;;;;;6.47;2.80;;;15.70;99.90;;;;;;6179219;23;20171;-86
2023/07/13 03:07:03;;;;;;;3.58;2.42;;;15.70;99.90;;;;;;6178679;23;20017;-86
2023/07/13 03:09:29;;;;;;;6.85;2.70;;;15.60;99.90;;;;;;6178378;23;20001;-87
2023/07/13 03:11:55;;;;;;;8.68;2.20;;;15.60;99.90;;;;;;6176047;23;20011;-86
2023/07/13 03:14:22;;;;;;;6.35;2.17;;;15.60;99.90;;;;;;6178468;23;20029;-86
2023/07/13 03:16:47;;;;;;;5.63;2.40;;;15.50;99.90;;;;;;6178223;23;20013;-86
2023/07/13 03:19:13;;;;;;;6.30;2.33;;;15.50;99.90;;;;;;6178862;23;20286;-86
2023/07/13 03:21:39;;;;;;;7.25;2.15;;;15.50;99.90;;;;;;6179292;23;20238;-84
2023/07/13 03:24:06;;;;;;;5.15;2.65;;;15.50;99.90;;;;;;6179003;23;20076;-83
2023/07/13 03:26:31;;;;;;;4.95;2.40;;;15.40;99.90;;;;;;6178963;23;20005;-85
2023/07/13 03:28:57;;;;;;;11.02;3.08;;;15.40;99.90;;;;;;6178721;23;20352;-84
2023/07/13 03:31:28;;;;;;;5.97;2.60;;;15.40;99.90;;;;;;6177323;23;20084;-84
2023/07/13 03:33:55;;;;;;;5.25;1.95;;;15.40;99.90;;;;;;6178644;23;20419;-83
2023/07/13 03:36:26;;;;;;;6.07;2.17;;;15.40;99.90;;;;;;6179122;23;20036;-82
2023/07/13 03:38:56;;;;;;;7.75;2.65;;;15.40;99.90;;;;;;6179072;23;20431;-85
2023/07/13 03:41:22;;;;;;;6.28;2.33;;;15.40;99.90;;;;;;6179641;23;20379;-86
2023/07/13 03:43:48;;;;;;;1.77;1.63;;;15.40;99.90;;;;;;6179424;23;20001;-86
2023/07/13 03:46:16;;;;;;;9.23;2.83;;;15.40;99.90;;;;;;6178494;23;20005;-86
2023/07/13 03:48:44;;;;;;;3.25;1.65;;;15.50;99.90;;;;;;6179169;23;20141;-86
2023/07/13 03:51:10;;;;;;;4.25;2.15;;;15.50;99.90;;;;;;6178880;23;20431;-86
2023/07/13 03:53:39;;;;;;;8.60;2.63;;;15.60;99.90;;;;;;6179152;23;20084;-86
2023/07/13 03:56:08;;;;;;;5.57;2.30;;;15.60;99.90;;;;;;6178997;23;20443;-86
2023/07/13 03:58:39;;;;;;;2.42;2.08;;;15.70;99.90;;;;;;6178537;23;20601;-86
2023/07/13 04:01:06;;;;;;;7.20;2.58;;;15.70;99.90;;;;;;6178982;23;20259;-85
2023/07/13 04:03:32;;;;;;;8.38;2.97;;;15.70;99.90;;;;;;6178980;23;20008;-86
2023/07/13 04:06:02;;;;;;;3.30;2.13;;;15.60;99.90;;;;;;6178214;23;20013;-86
2023/07/13 04:08:33;;;;;;;7.03;2.40;;;15.70;99.90;;;;;;6178588;23;20339;-87
2023/07/13 04:10:59;;;;;;;12.10;3.13;;;15.60;99.90;;;;;;6152701;23;20084;-86
2023/07/13 04:13:25;;;;;;;9.20;1.80;;;15.70;99.90;;;;;;6178910;23;20020;-86
2023/07/13 04:15:52;;;;;;;7.13;2.15;;;15.70;99.90;;;;;;6178473;23;20019;-83
2023/07/13 04:18:19;;;;;;;16.17;3.53;;;15.90;99.90;;;;;;6179082;23;20005;-85
2023/07/13 04:20:45;;;;;;;11.52;2.38;;;16.00;99.90;;;;;;6178724;23;20001;-87
2023/07/13 04:23:11;;;;;;;6.03;2.20;;;16.20;99.90;;;;;;6178809;23;20576;-87
2023/07/13 04:25:37;;;;;;;13.70;2.65;;;16.40;99.90;;;;;;6179141;23;20001;-85
2023/07/13 04:28:03;;;;;;;9.30;2.65;;;16.60;99.90;;;;;;6178806;23;20419;-86
2023/07/13 04:30:28;;;;;;;16.80;2.75;;;16.70;99.90;;;;;;6177900;23;20196;-86
2023/07/13 04:32:54;;;;;;;16.13;2.70;;;16.80;99.90;;;;;;6178884;23;20008;-84
2023/07/13 04:35:20;;;;;;;14.45;2.45;;;16.80;99.90;;;;;;6178587;23;20206;-86
2023/07/13 04:37:48;;;;;;;8.20;2.45;;;16.90;99.90;;;;;;6178560;23;20075;-87
2023/07/13 04:40:14;;;;;;;15.20;2.85;;;17.00;99.90;;;;;;6178482;23;20375;-86
2023/07/13 04:42:40;;;;;;;16.45;2.38;;;17.10;99.90;;;;;;6177443;23;20001;-87
2023/07/13 04:45:06;;;;;;;25.48;4.05;;;17.20;99.90;;;;;;6179144;23;20401;-86
2023/07/13 04:47:32;;;;;;;19.70;2.72;;;17.20;99.90;;;;;;6178542;23;20008;-86
2023/07/13 04:49:58;;;;;;;12.95;2.25;;;17.30;99.90;;;;;;6178904;23;20001;-87
2023/07/13 04:52:24;;;;;;;15.35;2.80;;;17.30;99.90;;;;;;6178135;23;20451;-85
2023/07/13 04:54:51;;;;;;;14.15;2.20;;;17.40;99.90;;;;;;6177693;23;20012;-83
2023/07/13 04:57:16;;;;;;;16.45;2.67;;;17.40;99.90;;;;;;6177816;23;20433;-86
2023/07/13 04:59:42;;;;;;;10.75;2.20;;;17.40;99.90;;;;;;6178295;23;20036;-86
2023/07/13 05:02:07;;;;;;;12.70;2.22;;;17.40;99.90;;;;;;6178092;23;20076;-85
2023/07/13 05:04:33;;;;;;;15.00;2.20;;;17.50;99.90;;;;;;6178067;23;20012;-86
2023/07/13 05:07:01;;;;;;;14.75;2.42;;;17.60;99.90;;;;;;6177999;23;20013;-86
2023/07/13 05:09:26;;;;;;;10.75;2.40;;;17.60;99.90;;;;;;6177995;23;20009;-86
2023/07/13 05:11:52;;;;;;;11.25;2.13;;;17.70;99.90;;;;;;6177943;23;20001;-85
2023/07/13 05:14:17;;;;;;;9.18;2.17;;;17.80;99.90;;;;;;6178454;23;20029;-86
2023/07/13 05:16:43;;;;;;;10.50;2.38;;;17.80;99.90;;;;;;6177700;23;20019;-86
2023/07/13 05:19:09;;;;;;;8.93;2.10;;;17.90;99.90;;;;;;6178366;23;20005;-86
2023/07/13 05:21:35;;;;;;;9.30;2.30;;;17.90;99.90;;;;;;6177559;23;20084;-87
2023/07/13 05:24:01;;;;;;;8.48;2.72;;;18.00;99.90;;;;;;6178374;23;20032;-86
2023/07/13 05:26:26;;;;;;;9.75;2.00;;;18.10;99.90;;;;;;6177697;23;20005;-87
2023/07/13 05:28:52;;;;;;;14.90;2.63;;;18.20;99.90;;;;;;6177675;23;20001;-86
2023/07/13 05:31:18;;;;;;;13.55;2.22;;;18.30;99.90;;;;;;6178489;23;20001;-86
2023/07/13 05:33:43;;;;;;;11.82;2.15;;;18.30;99.90;;;;;;6177078;23;20318;-91
2023/07/13 05:36:09;;;;;;;14.30;2.08;;;18.40;99.90;;;;;;6177274;23;20277;-84
2023/07/13 05:38:34;;;;;;;6.35;1.90;;;18.40;99.90;;;;;;6178173;23;20008;-87
2023/07/13 05:41:00;;;;;;;10.75;2.20;;;18.50;99.90;;;;;;6177886;23;20012;-85
2023/07/13 05:43:26;;;;;;;14.55;2.58;;;18.50;99.90;;;;;;6177450;23;20375;-86
2023/07/13 05:45:56;;;;;;;10.40;1.83;;;18.50;99.90;;;;;;6178251;23;20001;-84
2023/07/13 05:48:22;;;;;;;11.63;2.38;;;18.50;99.90;;;;;;6177778;23;20008;-85
2023/07/13 05:50:49;;;;;;;9.25;1.92;;;18.60;99.90;;;;;;6178211;23;20052;-86
2023/07/13 05:53:14;;;;;;;10.15;1.75;;;18.60;99.90;;;;;;6177692;23;20062;-88
2023/07/13 05:55:47;;;;;;;8.77;2.40;;;18.60;99.90;;;;;;6176834;23;20088;-87
2023/07/13 05:58:13;;;;;;;9.23;2.05;;;18.60;99.90;;;;;;6176557;23;19997;-86
2023/07/13 06:00:39;;;;;;;9.20;2.30;;;18.60;99.90;;;;;;6177155;23;20028;-84
2023/07/13 06:03:06;;;;;;;10.75;2.10;;;18.70;99.90;;;;;;6177829;23;20005;-85
2023/07/13 06:05:33;;;;;;;7.25;1.90;;;18.70;99.90;;;;;;6177334;23;20021;-87
2023/07/13 06:07:59;;;;;;;7.20;1.80;;;18.70;99.90;;;;;;6176546;23;20033;-86
2023/07/13 06:10:25;;;;;;;8.35;2.10;;;18.80;99.90;;;;;;6176097;23;20434;-91
2023/07/13 06:12:50;;;;;;;9.00;2.10;;;18.80;99.90;;;;;;6177522;23;20005;-89
2023/07/13 06:15:16;;;;;;;6.38;2.38;;;18.80;99.90;;;;;;6175785;23;20012;-85
2023/07/13 06:17:41;;;;;;;8.93;1.95;;;18.90;99.90;;;;;;6151365;23;20013;-86
2023/07/13 06:20:07;;;;;;;22.75;5.32;;;18.90;99.90;;;;;;6176578;23;20001;-85
2023/07/13 06:22:33;;;;;;;6.53;1.98;;;18.90;99.90;;;;;;6177559;23;20003;-87
2023/07/13 06:24:58;;;;;;;9.38;2.05;;;19.00;99.90;;;;;;6176012;23;20068;-86
2023/07/13 06:27:24;;;;;;;12.77;2.35;;;19.00;99.90;;;;;;6151744;23;20445;-88
2023/07/13 06:29:49;;;;;;;6.18;2.22;;;19.00;99.90;;;;;;6178497;23;19997;-87
2023/07/13 06:32:15;;;;;;;15.63;2.28;;;19.10;99.90;;;;;;6175756;23;20001;-87
2023/07/13 06:34:40;;;;;;;7.72;1.70;;;19.00;99.90;;;;;;6151842;23;19997;-86
2023/07/13 06:37:06;;;;;;;8.30;2.33;;;19.10;99.90;;;;;;6150678;23;20020;-84
2023/07/13 06:39:32;;;;;;;8.30;2.10;;;19.10;99.90;;;;;;6177034;23;20332;-87
2023/07/13 06:41:58;;;;;;;6.00;2.05;;;19.10;99.90;;;;;;6151609;23;20004;-89
2023/07/13 06:44:23;;;;;;;5.93;1.88;;;19.10;99.90;;;;;;6177849;23;20032;-86
2023/07/13 06:46:49;;;;;;;13.65;2.50;;;19.10;99.90;;;;;;6178014;23;20001;-88
2023/07/13 06:49:15;;;;;;;10.10;2.33;;;19.10;99.90;;;;;;6174960;23;20436;-89
2023/07/13 06:51:40;;;;;;;8.30;2.08;;;19.20;99.90;;;;;;6176262;23;20001;-88
2023/07/13 06:54:06;;;;;;;9.77;2.08;;;19.20;99.90;;;;;;6178094;23;20043;-87
2023/07/13 06:56:31;;;;;;;11.10;2.35;;;19.30;99.90;;;;;;6176605;23;20142;-87
2023/07/13 06:58:57;;;;;;;8.55;2.95;;;19.30;99.90;;;;;;6176746;23;19993;-90
2023/07/13 07:01:22;;;;;;;10.68;2.72;;;19.30;99.90;;;;;;6177075;23;20001;-86
2023/07/13 07:03:48;;;;;;;7.97;2.35;;;19.30;99.90;;;;;;6176100;23;20329;-90
2023/07/13 07:06:17;;;;;;;10.63;2.25;;;19.40;99.90;;;;;;6177537;23;20343;-91
2023/07/13 07:08:42;;;;;;;12.50;2.97;;;19.50;99.90;;;;;;6179476;23;20010;-87
2023/07/13 07:11:24;;;;;;;9.18;2.58;;;19.40;99.90;;;;;;6180027;23;20008;-87
2023/07/13 07:13:52;;;;;;;7.78;2.30;;;19.50;99.90;;;;;;6180391;23;20001;-87
2023/07/13 07:16:19;;;;;;;7.82;2.30;;;19.40;99.90;;;;;;6178147;23;20502;-86
2023/07/13 07:18:45;;;;;;;10.52;2.85;;;19.40;99.90;;;;;;6179760;23;20048;-87
2023/07/13 07:21:14;;;;;;;12.93;2.33;;;19.50;99.90;;;;;;6178732;23;20001;-87
2023/07/13 07:23:42;;;;;;;13.93;2.65;;;19.50;99.90;;;;;;6179521;23;20136;-88
2023/07/13 07:26:09;;;;;;;27.00;3.92;;;19.50;99.90;;;;;;6179692;23;20005;-89
2023/07/13 07:28:35;;;;;;;9.90;2.95;;;19.50;99.90;;;;;;6178974;23;20005;-87
2023/07/13 07:31:01;;;;;;;13.25;2.75;;;19.50;99.90;;;;;;6176190;23;20008;-89
2023/07/13 07:33:27;;;;;;;13.02;2.85;;;19.50;99.90;;;;;;6179672;23;20013;-91
2023/07/13 07:35:53;;;;;;;12.85;2.85;;;19.60;99.90;;;;;;6178780;23;20343;-89
2023/07/13 07:38:18;;;;;;;11.63;3.42;;;19.60;99.90;;;;;;6178721;23;20028;-89
2023/07/13 07:40:44;;;;;;;10.43;3.78;;;19.70;99.90;;;;;;6178606;23;19997;-89
2023/07/13 07:43:12;;;;;;;21.73;5.95;;;19.70;99.90;;;;;;6178706;23;20001;-88
2023/07/13 07:45:39;;;;;;;10.07;3.50;;;19.70;99.90;;;;;;6178528;23;20001;-82
2023/07/13 07:48:06;;;;;;;19.52;2.95;;;19.70;99.90;;;;;;6178828;23;20005;-89
2023/07/13 07:50:32;;;;;;;14.65;3.47;;;19.70;99.90;;;;;;6178678;23;20356;-86
2023/07/13 07:52:57;;;;;;;16.70;3.30;;;19.80;99.90;;;;;;6176075;23;20092;-84
2023/07/13 07:55:28;;;;;;;12.70;3.22;;;19.80;99.90;;;;;;6178316;23;20048;-89
2023/07/13 07:57:56;;;;;;;10.15;3.55;;;19.80;99.90;;;;;;6178357;23;20067;-82
2023/07/13 08:00:22;;;;;;;9.35;2.97;;;19.90;99.90;;;;;;6179429;23;20469;-83
2023/07/13 08:02:48;;;;;;;8.77;2.30;;;19.90;99.90;;;;;;6179522;23;20304;-90
2023/07/13 08:05:14;;;;;;;13.85;3.17;;;20.10;99.90;;;;;;6178444;23;20190;-84
2023/07/13 08:07:40;;;;;;;12.57;2.17;;;20.00;99.90;;;;;;6176648;23;20001;-85
2023/07/13 08:10:07;;;;;;;11.77;2.70;;;20.10;99.90;;;;;;6178428;23;20001;-88
2023/07/13 08:12:37;;;;;;;11.13;3.00;;;20.10;99.90;;;;;;6176224;23;20080;-85
2023/07/13 08:15:03;;;;;;;8.52;2.20;;;20.10;99.90;;;;;;6179421;23;20332;-86
2023/07/13 08:17:30;;;;;;;5.60;1.75;;;20.10;99.90;;;;;;6178310;23;20020;-88
2023/07/13 08:19:56;;;;;;;10.75;1.73;;;20.10;99.90;;;;;;6177783;23;20008;-87
2023/07/13 08:22:21;;;;;;;10.70;2.63;;;20.10;99.90;;;;;;6152123;23;20009;-84
2023/07/13 08:24:55;;;;;;;6.50;2.17;;;20.20;99.90;;;;;;6178700;23;20012;-86
2023/07/13 08:27:20;;;;;;;9.25;1.70;;;20.10;99.90;;;;;;6173063;23;20001;-85
2023/07/13 08:29:50;;;;;;;8.13;1.88;;;20.20;99.90;;;;;;6177026;23;20423;-83
2023/07/13 08:32:17;;;;;;;7.95;1.50;;;20.30;99.90;;;;;;6177920;23;20016;-85
2023/07/13 08:34:43;;;;;;;5.18;1.60;;;20.40;99.90;;;;;;6178258;23;20051;-86
2023/07/13 08:37:09;;;;;;;5.28;1.63;;;20.40;99.90;;;;;;6178293;23;20347;-86
2023/07/13 08:39:35;;;;;;;5.32;1.38;;;20.50;99.90;;;;;;6178809;23;20012;-85
2023/07/13 08:42:18;;;;;;;7.25;1.70;;;20.60;99.90;;;;;;6176223;23;20009;-86
2023/07/13 08:45:05;;;;;;;9.43;2.00;;;20.60;99.90;;;;;;6177790;23;20005;-86
2023/07/13 08:47:34;;;;;;;8.65;1.55;;;20.60;99.90;;;;;;6178305;23;20247;-85
2023/07/13 08:50:01;;;;;;;8.23;1.80;;;20.60;99.90;;;;;;6177874;23;20076;-85
2023/07/13 08:52:34;;;;;;;5.07;2.00;;;20.50;99.90;;;;;;6176637;23;20005;-84
2023/07/13 08:55:17;;;;;;;8.98;1.75;;;20.50;99.90;;;;;;6178242;23;20008;-86
2023/07/13 08:57:46;;;;;;;3.80;1.40;;;20.50;99.90;;;;;;6176821;23;20013;-86
2023/07/13 09:00:14;;;;;;;10.13;1.35;;;20.50;99.90;;;;;;6177811;23;20410;-83
2023/07/13 09:02:50;;;;;;;5.63;1.48;;;20.60;99.90;;;;;;6176736;23;20017;-87
2023/07/13 09:05:28;;;;;;;6.50;1.23;;;20.70;99.90;;;;;;6177674;23;20072;-86
2023/07/13 09:08:27;;;;;;;4.30;1.23;;;20.70;99.90;;;;;;6177885;23;20072;-81
2023/07/13 09:11:17;;;;;;;14.07;1.88;;;20.80;99.90;;;;;;6178686;23;20047;-84
2023/07/13 09:13:58;;;;;;;7.00;1.30;;;20.90;99.90;;;;;;6175795;23;20025;-85
2023/07/13 09:16:24;;;;;;;6.43;1.77;;;20.90;99.90;;;;;;6176231;23;20017;-83
2023/07/13 09:18:54;;;;;;;8.15;1.60;;;20.90;99.90;;;;;;6178494;23;20132;-84
2023/07/13 09:21:31;;;;;;;5.05;1.25;;;20.90;99.90;;;;;;6175108;23;20047;-87
2023/07/13 09:24:01;;;;;;;5.55;1.10;;;21.00;99.90;;;;;;6176517;23;20079;-85
2023/07/13 09:26:32;;;;;;;4.57;1.65;;;21.10;99.90;;;;;;6176142;23;20466;-82
2023/07/13 09:29:09;;;;;;;5.43;1.25;;;21.20;99.90;;;;;;6175131;23;20482;-86
2023/07/13 09:31:39;;;;;;;9.98;1.73;;;21.20;99.90;;;;;;6177612;23;20028;-84
2023/07/13 09:34:10;;;;;;;9.20;1.50;;;21.30;99.90;;;;;;6174547;23;20012;-85
2023/07/13 09:36:35;;;;;;;6.88;1.33;;;21.30;99.90;;;;;;6176169;23;20024;-84
2023/07/13 09:39:20;;;;;;;5.05;1.58;;;21.20;99.90;;;;;;6178109;23;19997;-84
2023/07/13 09:42:02;;;;;;;5.15;1.48;;;21.10;99.90;;;;;;6150847;23;20100;-85
2023/07/13 09:44:35;;;;;;;3.97;1.23;;;21.00;99.90;;;;;;6178024;23;20001;-87
2023/07/13 09:47:01;;;;;;;9.98;1.95;;;21.00;99.90;;;;;;6175454;23;20005;-84
2023/07/13 09:49:36;;;;;;;10.13;1.65;;;20.90;99.90;;;;;;6174929;23;20441;-85
2023/07/13 09:52:06;;;;;;;5.97;1.15;;;20.70;99.90;;;;;;6178121;23;20454;-86
2023/07/13 09:54:36;;;;;;;6.07;1.08;;;20.70;99.90;;;;;;6176441;23;20011;-84
2023/07/13 09:57:11;;;;;;;4.10;1.85;;;20.70;99.90;;;;;;6176038;23;20012;-85
2023/07/13 09:59:42;;;;;;;9.47;1.50;;;20.60;99.90;;;;;;6178460;23;20080;-84
2023/07/13 10:02:27;;;;;;;4.05;1.67;;;20.60;99.90;;;;;;6174776;23;20431;-84
2023/07/13 10:04:58;;;;;;;9.60;1.10;;;20.70;99.90;;;;;;6176080;23;20009;-86
2023/07/13 10:07:24;;;;;;;5.88;1.48;;;20.80;99.90;;;;;;6177140;23;20027;-84
2023/07/13 10:09:54;;;;;;;4.43;1.58;;;20.90;99.90;;;;;;6176425;23;20009;-85
2023/07/13 10:12:24;;;;;;;6.57;1.55;;;21.10;99.90;;;;;;6176580;23;20001;-84
2023/07/13 10:14:57;;;;;;;4.20;1.40;;;21.20;99.90;;;;;;6176089;23;20292;-82
2023/07/13 10:17:30;;;;;;;4.15;1.00;;;21.30;99.90;;;;;;6177391;23;20009;-83
2023/07/13 10:20:04;;;;;;;3.97;1.60;;;21.20;99.90;;;;;;6177803;23;20427;-87
2023/07/13 10:22:39;;;;;;;3.95;1.30;;;21.20;99.90;;;;;;6174993;23;20001;-83
2023/07/13 10:25:18;;;;;;;9.43;1.63;;;21.20;99.90;;;;;;6177708;23;20005;-86
2023/07/13 10:27:45;;;;;;;7.28;1.10;;;21.30;99.90;;;;;;6175411;23;20546;-87
2023/07/13 10:30:25;;;;;;;6.97;2.58;;;21.40;99.90;;;;;;6176807;23;20025;-84
2023/07/13 10:32:53;;;;;;;6.32;1.90;;;21.40;99.90;;;;;;6176959;23;20080;-81
2023/07/13 10:35:22;;;;;;;6.55;1.20;;;21.60;99.90;;;;;;6176329;23;20010;-84
2023/07/13 10:38:06;;;;;;;7.78;2.15;;;21.60;99.90;;;;;;6176640;23;20016;-84
2023/07/13 10:40:58;;;;;;;5.68;1.45;;;21.60;99.10;;;;;;6175758;23;20452;-85
2023/07/13 10:43:36;;;;;;;7.43;1.60;;;21.60;99.90;;;;;;6157021;23;20001;-85
2023/07/13 10:46:03;;;;;;;5.20;2.00;;;21.60;99.90;;;;;;6176503;23;20328;-84
2023/07/13 10:48:34;;;;;;;7.75;1.60;;;21.70;99.90;;;;;;6178037;23;20513;-84
2023/07/13 10:51:01;;;;;;;8.35;1.48;;;21.80;99.90;;;;;;6178407;23;20449;-83
2023/07/13 10:53:36;;;;;;;7.10;1.25;;;21.90;99.10;;;;;;6177962;23;20004;-84
2023/07/13 10:56:18;;;;;;;4.65;1.40;;;21.90;99.90;;;;;;6178664;23;20035;-82
2023/07/13 10:58:45;;;;;;;5.65;1.25;;;21.90;99.90;;;;;;6178277;23;20347;-83
2023/07/13 11:01:11;;;;;;;9.88;2.47;;;22.00;99.90;;;;;;6177811;23;20047;-85
2023/07/13 11:04:03;;;;;;;5.63;1.50;;;22.00;99.10;;;;;;6179100;23;20420;-83
2023/07/13 11:06:36;;;;;;;5.88;2.90;;;22.10;99.90;;;;;;6179247;23;20470;-86
2023/07/13 11:09:33;;;;;;;10.70;1.70;;;22.20;99.90;;;;;;6177847;23;20013;-84
2023/07/13 11:12:00;;;;;;;3.08;1.48;;;22.30;96.00;;;;;;6178501;23;20035;-83
2023/07/13 11:14:30;;;;;;;4.53;1.20;;;22.20;99.90;;;;;;6152611;23;20005;-86
2023/07/13 11:17:19;;;;;;;4.57;1.20;;;22.20;94.10;;;;;;6178124;23;20020;-84
2023/07/13 11:19:50;;;;;;;3.78;1.40;;;22.20;95.90;;;;;;6178707;23;20015;-84
2023/07/13 11:22:21;;;;;;;6.93;1.55;;;22.30;94.20;;;;;;6149556;23;20428;-85
2023/07/13 11:24:58;;;;;;;3.60;1.15;;;22.30;93.00;;;;;;6178078;23;20375;-86
2023/07/13 11:27:40;;;;;;;5.28;1.55;;;22.30;92.90;;;;;;6177913;23;20327;-82
2023/07/13 11:30:22;;;;;;;9.52;2.03;;;22.30;93.30;;;;;;6175468;23;20024;-84
2023/07/13 11:32:52;;;;;;;5.47;1.60;;;22.20;92.70;;;;;;6177731;23;20080;-84
2023/07/13 11:35:26;;;;;;;2.33;1.20;;;22.20;93.50;;;;;;6177044;23;20001;-83
2023/07/13 11:37:52;;;;;;;8.25;1.48;;;22.20;93.00;;;;;;6179234;23;20013;-83
2023/07/13 11:40:18;;;;;;;5.63;1.40;;;22.20;94.60;;;;;;6178775;23;20004;-84
2023/07/13 11:42:44;;;;;;;3.80;1.42;;;22.30;91.60;;;;;;6179128;23;20008;-83
2023/07/13 11:45:23;;;;;;;10.38;2.10;;;22.30;93.00;;;;;;6178632;23;19997;-82
2023/07/13 11:47:49;;;;;;;6.15;1.25;;;22.50;93.10;;;;;;6179150;23;20304;-84
2023/07/13 11:50:22;;;;;;;7.15;1.52;;;22.70;93.10;;;;;;6176685;23;20087;-84
2023/07/13 11:52:50;;;;;;;4.35;1.63;;;22.60;91.80;;;;;;6177844;23;20395;-83
2023/07/13 11:55:18;;;;;;;5.25;1.65;;;22.50;89.70;;;;;;6176058;23;20005;-82
2023/07/13 11:57:51;;;;;;;6.47;1.85;;;22.30;87.60;;;;;;6177082;23;20119;-83
2023/07/13 12:00:26;;;;;;;3.50;1.40;;;22.30;91.20;;;;;;6176660;23;20448;-83
2023/07/13 12:02:55;;;;;;;2.72;1.40;;;22.40;90.00;;;;;;6178314;23;20005;-85
2023/07/13 12:05:21;;;;;;;9.15;1.88;;;22.40;90.50;;;;;;6178696;23;20017;-81
2023/07/13 12:07:48;;;;;;;3.50;1.50;;;22.40;87.30;;;;;;6178310;23;20001;-81
2023/07/13 12:10:32;;;;;;;8.52;1.20;;;22.30;91.30;;;;;;6177234;23;20008;-83
2023/07/13 12:13:01;;;;;;;8.82;1.42;;;22.10;91.10;;;;;;6179201;23;20092;-82
2023/07/13 12:15:36;;;;;;;1.92;1.05;;;22.00;93.50;;;;;;6178632;23;20033;-82
2023/07/13 12:18:01;;;;;;;6.88;1.48;;;22.10;95.40;;;;;;6178170;23;20016;-82
2023/07/13 12:20:36;;;;;;;3.30;1.33;;;22.20;97.40;;;;;;6177928;23;20448;-82
2023/07/13 12:23:10;;;;;;;6.28;1.48;;;22.40;93.60;;;;;;6178663;23;20013;-85
2023/07/13 12:25:36;;;;;;;11.52;6.57;;;22.50;90.50;;;;;;6178342;23;20441;-83
2023/07/13 12:28:21;;;;;;;4.55;1.60;;;22.50;93.40;;;;;;6177835;23;20001;-86
2023/07/13 12:30:48;;;;;;;4.50;1.77;;;22.50;88.20;;;;;;6178384;23;20020;-83
2023/07/13 12:33:16;;;;;;;4.30;1.25;;;22.40;90.40;;;;;;6176770;23;20055;-81
2023/07/13 12:35:52;;;;;;;5.50;1.10;;;22.40;94.30;;;;;;6178581;23;20063;-83
2023/07/13 12:38:21;;;;;;;9.10;1.73;;;22.60;89.60;;;;;;6177060;23;20439;-83
2023/07/13 12:40:50;;;;;;;2.05;0.90;;;22.70;87.60;;;;;;6178323;23;20001;-83
2023/07/13 12:43:16;;;;;;;5.82;1.63;;;22.80;91.70;;;;;;6178812;23;20000;-82
2023/07/13 12:46:17;;;;;;;3.25;1.23;;;23.00;85.80;;;;;;6151665;23;20403;-84
2023/07/13 12:48:42;;;;;;;4.65;1.58;;;23.20;81.30;;;;;;6099873;23;20088;-81
2023/07/13 12:51:13;;;;;;;5.68;1.10;;;23.20;80.20;;;;;;6176531;23;20039;-85
2023/07/13 12:53:50;;;;;;;2.53;1.38;;;23.10;84.60;;;;;;6178099;23;20005;-84